Terminal Aerodrome Forecast
Issued by NWS

Home | Current Version | Previous Version | Text Only | Print | Product List | Glossary On
Versions: 1 2 3 4 5 6 7 8 9 10 11 12 13 14 15 16 17 18 19 20 21 22 23 24
000
FTUS43 KDLH 291000 AAA
TAFHYR
TAF AMD
KHYR 291010Z 2910/3006 00000KT 4SM BR FEW001 FEW100
      TEMPO 2910/2912 3/4SM BR SCT001
     FM291300 VRB02KT P6SM FEW100
     FM291800 32008KT P6SM VCSH BKN050
     FM292100 34007KT P6SM VCTS BKN050CB
     FM300200 01003KT P6SM SCT050=

USA.gov is the U.S. government's official web portal to all federal, state and local government web resources and services.